sensor_id;sensor_type;location;lat;lon;timestamp;P1;durP1;ratioP1;P2;durP2;ratioP2
4375;SDS011;2202;50.866;12.750;2023-04-24T00:01:07;1.60;;;1.40;;
4375;SDS011;2202;50.866;12.750;2023-04-24T00:03:34;3.53;;;1.40;;
4375;SDS011;2202;50.866;12.750;2023-04-24T00:06:01;2.00;;;1.57;;
4375;SDS011;2202;50.866;12.750;2023-04-24T00:08:29;4.23;;;1.60;;
4375;SDS011;2202;50.866;12.750;2023-04-24T00:10:56;2.30;;;1.63;;
4375;SDS011;2202;50.866;12.750;2023-04-24T00:13:23;2.13;;;1.30;;
4375;SDS011;2202;50.866;12.750;2023-04-24T00:15:50;1.60;;;1.50;;
4375;SDS011;2202;50.866;12.750;2023-04-24T00:18:17;2.20;;;1.73;;
4375;SDS011;2202;50.866;12.750;2023-04-24T00:20:44;1.70;;;1.50;;
4375;SDS011;2202;50.866;12.750;2023-04-24T00:23:11;2.67;;;2.10;;
4375;SDS011;2202;50.866;12.750;2023-04-24T00:25:39;2.20;;;2.00;;
4375;SDS011;2202;50.866;12.750;2023-04-24T00:28:06;1.70;;;1.50;;
4375;SDS011;2202;50.866;12.750;2023-04-24T00:30:33;2.10;;;1.90;;
4375;SDS011;2202;50.866;12.750;2023-04-24T00:33:01;2.27;;;1.90;;
4375;SDS011;2202;50.866;12.750;2023-04-24T00:35:27;5.40;;;2.13;;
4375;SDS011;2202;50.866;12.750;2023-04-24T00:37:54;2.30;;;2.00;;
4375;SDS011;2202;50.866;12.750;2023-04-24T00:40:21;7.53;;;2.33;;
4375;SDS011;2202;50.866;12.750;2023-04-24T00:42:50;2.77;;;2.57;;
4375;SDS011;2202;50.866;12.750;2023-04-24T00:45:17;2.47;;;1.90;;
4375;SDS011;2202;50.866;12.750;2023-04-24T00:47:43;2.23;;;2.03;;
4375;SDS011;2202;50.866;12.750;2023-04-24T00:50:12;2.80;;;2.60;;
4375;SDS011;2202;50.866;12.750;2023-04-24T00:52:41;2.43;;;2.23;;
4375;SDS011;2202;50.866;12.750;2023-04-24T00:55:08;2.50;;;2.30;;
4375;SDS011;2202;50.866;12.750;2023-04-24T00:57:35;2.60;;;2.40;;
4375;SDS011;2202;50.866;12.750;2023-04-24T01:00:05;2.80;;;2.53;;
4375;SDS011;2202;50.866;12.750;2023-04-24T01:02:35;2.70;;;2.50;;
4375;SDS011;2202;50.866;12.750;2023-04-24T01:05:05;3.40;;;2.10;;
4375;SDS011;2202;50.866;12.750;2023-04-24T01:07:33;3.40;;;3.10;;
4375;SDS011;2202;50.866;12.750;2023-04-24T01:10:00;2.87;;;2.67;;
4375;SDS011;2202;50.866;12.750;2023-04-24T01:12:27;3.03;;;2.60;;
4375;SDS011;2202;50.866;12.750;2023-04-24T01:14:54;3.53;;;3.23;;
4375;SDS011;2202;50.866;12.750;2023-04-24T01:17:24;3.17;;;2.80;;
4375;SDS011;2202;50.866;12.750;2023-04-24T01:19:50;2.90;;;2.57;;
4375;SDS011;2202;50.866;12.750;2023-04-24T01:22:20;2.77;;;2.57;;
4375;SDS011;2202;50.866;12.750;2023-04-24T01:24:46;7.20;;;3.97;;
4375;SDS011;2202;50.866;12.750;2023-04-24T01:27:14;3.50;;;2.80;;
4375;SDS011;2202;50.866;12.750;2023-04-24T01:29:41;3.07;;;2.73;;
4375;SDS011;2202;50.866;12.750;2023-04-24T01:32:08;3.20;;;2.90;;
4375;SDS011;2202;50.866;12.750;2023-04-24T01:34:35;4.83;;;2.80;;
4375;SDS011;2202;50.866;12.750;2023-04-24T01:37:02;2.60;;;2.40;;
4375;SDS011;2202;50.866;12.750;2023-04-24T01:39:31;3.00;;;2.70;;
4375;SDS011;2202;50.866;12.750;2023-04-24T01:41:59;3.00;;;2.80;;
4375;SDS011;2202;50.866;12.750;2023-04-24T01:44:27;3.67;;;2.73;;
4375;SDS011;2202;50.866;12.750;2023-04-24T01:46:54;3.00;;;2.73;;
4375;SDS011;2202;50.866;12.750;2023-04-24T01:49:21;4.47;;;3.03;;
4375;SDS011;2202;50.866;12.750;2023-04-24T01:51:48;2.70;;;2.50;;
4375;SDS011;2202;50.866;12.750;2023-04-24T01:54:15;2.80;;;2.60;;
4375;SDS011;2202;50.866;12.750;2023-04-24T01:56:43;3.80;;;2.90;;
4375;SDS011;2202;50.866;12.750;2023-04-24T01:59:11;3.80;;;2.97;;
4375;SDS011;2202;50.866;12.750;2023-04-24T02:01:38;3.53;;;3.23;;
4375;SDS011;2202;50.866;12.750;2023-04-24T02:04:06;2.73;;;2.50;;
4375;SDS011;2202;50.866;12.750;2023-04-24T02:06:33;5.20;;;4.00;;
4375;SDS011;2202;50.866;12.750;2023-04-24T02:09:00;3.50;;;2.87;;
4375;SDS011;2202;50.866;12.750;2023-04-24T02:11:29;2.87;;;2.67;;
4375;SDS011;2202;50.866;12.750;2023-04-24T02:13:57;2.90;;;2.70;;
4375;SDS011;2202;50.866;12.750;2023-04-24T02:16:24;2.73;;;2.53;;
4375;SDS011;2202;50.866;12.750;2023-04-24T02:18:51;5.00;;;3.80;;
4375;SDS011;2202;50.866;12.750;2023-04-24T02:21:18;6.00;;;2.90;;
4375;SDS011;2202;50.866;12.750;2023-04-24T02:23:44;3.80;;;3.20;;
4375;SDS011;2202;50.866;12.750;2023-04-24T02:26:11;3.47;;;2.87;;
4375;SDS011;2202;50.866;12.750;2023-04-24T02:28:38;3.53;;;3.23;;
4375;SDS011;2202;50.866;12.750;2023-04-24T02:31:06;3.47;;;3.17;;
4375;SDS011;2202;50.866;12.750;2023-04-24T02:33:33;4.07;;;3.50;;
4375;SDS011;2202;50.866;12.750;2023-04-24T02:36:00;6.00;;;3.13;;
4375;SDS011;2202;50.866;12.750;2023-04-24T02:38:27;2.80;;;2.60;;
4375;SDS011;2202;50.866;12.750;2023-04-24T02:40:54;3.20;;;3.00;;
4375;SDS011;2202;50.866;12.750;2023-04-24T02:43:21;3.70;;;2.67;;
4375;SDS011;2202;50.866;12.750;2023-04-24T02:45:48;2.73;;;2.53;;
4375;SDS011;2202;50.866;12.750;2023-04-24T02:48:16;3.67;;;3.47;;
4375;SDS011;2202;50.866;12.750;2023-04-24T02:50:44;3.10;;;2.90;;
4375;SDS011;2202;50.866;12.750;2023-04-24T02:53:11;4.20;;;2.90;;
4375;SDS011;2202;50.866;12.750;2023-04-24T02:55:38;3.20;;;2.90;;
4375;SDS011;2202;50.866;12.750;2023-04-24T02:58:04;5.00;;;3.10;;
4375;SDS011;2202;50.866;12.750;2023-04-24T03:00:32;3.50;;;3.20;;
4375;SDS011;2202;50.866;12.750;2023-04-24T03:02:59;3.43;;;3.23;;
4375;SDS011;2202;50.866;12.750;2023-04-24T03:05:27;3.60;;;3.30;;
4375;SDS011;2202;50.866;12.750;2023-04-24T03:07:55;3.80;;;3.50;;
4375;SDS011;2202;50.866;12.750;2023-04-24T03:10:22;4.00;;;3.60;;
4375;SDS011;2202;50.866;12.750;2023-04-24T03:12:49;3.90;;;3.50;;
4375;SDS011;2202;50.866;12.750;2023-04-24T03:15:16;4.03;;;3.73;;
4375;SDS011;2202;50.866;12.750;2023-04-24T03:17:43;3.90;;;3.30;;
4375;SDS011;2202;50.866;12.750;2023-04-24T03:20:10;4.20;;;3.90;;
4375;SDS011;2202;50.866;12.750;2023-04-24T03:22:38;3.67;;;3.43;;
4375;SDS011;2202;50.866;12.750;2023-04-24T03:25:05;3.40;;;3.10;;
4375;SDS011;2202;50.866;12.750;2023-04-24T03:27:34;4.93;;;3.90;;
4375;SDS011;2202;50.866;12.750;2023-04-24T03:30:00;4.57;;;4.20;;
4375;SDS011;2202;50.866;12.750;2023-04-24T03:32:28;3.53;;;3.23;;
4375;SDS011;2202;50.866;12.750;2023-04-24T03:34:57;4.80;;;4.43;;
4375;SDS011;2202;50.866;12.750;2023-04-24T03:37:24;4.33;;;3.93;;
4375;SDS011;2202;50.866;12.750;2023-04-24T03:39:52;4.27;;;3.87;;
4375;SDS011;2202;50.866;12.750;2023-04-24T03:42:19;6.90;;;4.10;;
4375;SDS011;2202;50.866;12.750;2023-04-24T03:44:46;4.40;;;3.53;;
4375;SDS011;2202;50.866;12.750;2023-04-24T03:47:13;5.83;;;4.60;;
4375;SDS011;2202;50.866;12.750;2023-04-24T03:49:40;5.80;;;4.63;;
4375;SDS011;2202;50.866;12.750;2023-04-24T03:52:06;5.10;;;4.60;;
4375;SDS011;2202;50.866;12.750;2023-04-24T03:54:33;4.20;;;3.90;;
4375;SDS011;2202;50.866;12.750;2023-04-24T03:57:02;5.17;;;4.30;;
4375;SDS011;2202;50.866;12.750;2023-04-24T03:59:29;4.27;;;3.90;;
4375;SDS011;2202;50.866;12.750;2023-04-24T04:01:56;4.10;;;3.80;;
4375;SDS011;2202;50.866;12.750;2023-04-24T04:04:23;4.83;;;3.30;;
4375;SDS011;2202;50.866;12.750;2023-04-24T04:06:50;5.07;;;3.90;;
4375;SDS011;2202;50.866;12.750;2023-04-24T04:09:17;4.70;;;4.30;;
4375;SDS011;2202;50.866;12.750;2023-04-24T04:11:44;5.70;;;5.20;;
4375;SDS011;2202;50.866;12.750;2023-04-24T04:14:12;8.33;;;4.13;;
4375;SDS011;2202;50.866;12.750;2023-04-24T04:16:39;4.20;;;3.80;;
4375;SDS011;2202;50.866;12.750;2023-04-24T04:19:05;4.90;;;4.50;;
4375;SDS011;2202;50.866;12.750;2023-04-24T04:21:32;3.97;;;3.67;;
4375;SDS011;2202;50.866;12.750;2023-04-24T04:23:59;5.00;;;4.43;;
4375;SDS011;2202;50.866;12.750;2023-04-24T04:26:26;3.83;;;3.50;;
4375;SDS011;2202;50.866;12.750;2023-04-24T04:28:53;4.13;;;3.83;;
4375;SDS011;2202;50.866;12.750;2023-04-24T04:31:21;4.30;;;4.00;;
4375;SDS011;2202;50.866;12.750;2023-04-24T04:33:48;5.47;;;4.17;;
4375;SDS011;2202;50.866;12.750;2023-04-24T04:36:15;4.43;;;4.13;;
4375;SDS011;2202;50.866;12.750;2023-04-24T04:38:42;3.83;;;3.53;;
4375;SDS011;2202;50.866;12.750;2023-04-24T04:41:09;3.90;;;3.60;;
4375;SDS011;2202;50.866;12.750;2023-04-24T04:43:37;4.70;;;4.30;;
4375;SDS011;2202;50.866;12.750;2023-04-24T04:46:05;4.17;;;3.87;;
4375;SDS011;2202;50.866;12.750;2023-04-24T04:48:34;4.07;;;3.67;;
4375;SDS011;2202;50.866;12.750;2023-04-24T04:51:01;4.40;;;3.80;;
4375;SDS011;2202;50.866;12.750;2023-04-24T04:53:28;4.77;;;3.20;;
4375;SDS011;2202;50.866;12.750;2023-04-24T04:55:55;6.17;;;3.77;;
4375;SDS011;2202;50.866;12.750;2023-04-24T04:58:22;3.97;;;3.50;;
4375;SDS011;2202;50.866;12.750;2023-04-24T05:00:49;4.10;;;3.60;;
4375;SDS011;2202;50.866;12.750;2023-04-24T05:03:16;6.60;;;3.33;;
4375;SDS011;2202;50.866;12.750;2023-04-24T05:05:44;4.40;;;3.97;;
4375;SDS011;2202;50.866;12.750;2023-04-24T05:08:11;3.00;;;2.80;;
4375;SDS011;2202;50.866;12.750;2023-04-24T05:10:38;4.23;;;3.87;;
4375;SDS011;2202;50.866;12.750;2023-04-24T05:13:04;3.53;;;3.23;;
4375;SDS011;2202;50.866;12.750;2023-04-24T05:15:31;3.37;;;3.13;;
4375;SDS011;2202;50.866;12.750;2023-04-24T05:17:58;4.00;;;3.00;;
4375;SDS011;2202;50.866;12.750;2023-04-24T05:20:25;3.60;;;3.00;;
4375;SDS011;2202;50.866;12.750;2023-04-24T05:22:53;3.30;;;3.00;;
4375;SDS011;2202;50.866;12.750;2023-04-24T05:25:20;4.30;;;3.43;;
4375;SDS011;2202;50.866;12.750;2023-04-24T05:27:47;4.67;;;3.10;;
4375;SDS011;2202;50.866;12.750;2023-04-24T05:30:14;5.00;;;3.40;;
4375;SDS011;2202;50.866;12.750;2023-04-24T05:32:41;3.23;;;2.83;;
4375;SDS011;2202;50.866;12.750;2023-04-24T05:35:08;3.97;;;3.57;;
4375;SDS011;2202;50.866;12.750;2023-04-24T05:37:35;5.47;;;2.60;;
4375;SDS011;2202;50.866;12.750;2023-04-24T05:40:03;5.70;;;3.40;;
4375;SDS011;2202;50.866;12.750;2023-04-24T05:42:31;4.10;;;3.00;;
4375;SDS011;2202;50.866;12.750;2023-04-24T05:44:58;3.33;;;3.13;;
4375;SDS011;2202;50.866;12.750;2023-04-24T05:47:24;3.20;;;2.87;;
4375;SDS011;2202;50.866;12.750;2023-04-24T05:49:52;10.40;;;4.47;;
4375;SDS011;2202;50.866;12.750;2023-04-24T05:52:19;3.60;;;3.30;;
4375;SDS011;2202;50.866;12.750;2023-04-24T05:54:45;4.53;;;2.67;;
4375;SDS011;2202;50.866;12.750;2023-04-24T05:57:14;3.70;;;3.17;;
4375;SDS011;2202;50.866;12.750;2023-04-24T05:59:40;4.07;;;2.60;;
4375;SDS011;2202;50.866;12.750;2023-04-24T06:02:07;3.37;;;3.07;;
4375;SDS011;2202;50.866;12.750;2023-04-24T06:04:34;2.67;;;2.30;;
4375;SDS011;2202;50.866;12.750;2023-04-24T06:07:01;3.23;;;2.93;;
4375;SDS011;2202;50.866;12.750;2023-04-24T06:09:28;2.97;;;2.60;;
4375;SDS011;2202;50.866;12.750;2023-04-24T06:11:55;2.80;;;2.60;;
4375;SDS011;2202;50.866;12.750;2023-04-24T06:14:23;4.40;;;2.50;;
4375;SDS011;2202;50.866;12.750;2023-04-24T06:16:50;2.83;;;2.60;;
4375;SDS011;2202;50.866;12.750;2023-04-24T06:19:17;4.87;;;4.30;;
4375;SDS011;2202;50.866;12.750;2023-04-24T06:21:44;2.60;;;2.40;;
4375;SDS011;2202;50.866;12.750;2023-04-24T06:24:13;3.90;;;2.87;;
4375;SDS011;2202;50.866;12.750;2023-04-24T06:26:41;2.63;;;2.43;;
4375;SDS011;2202;50.866;12.750;2023-04-24T06:29:08;2.87;;;2.60;;
4375;SDS011;2202;50.866;12.750;2023-04-24T06:31:36;2.60;;;2.40;;
4375;SDS011;2202;50.866;12.750;2023-04-24T06:34:03;9.97;;;2.90;;
4375;SDS011;2202;50.866;12.750;2023-04-24T06:36:30;2.90;;;2.70;;
4375;SDS011;2202;50.866;12.750;2023-04-24T06:38:59;3.20;;;2.90;;
4375;SDS011;2202;50.866;12.750;2023-04-24T06:41:26;2.67;;;2.40;;
4375;SDS011;2202;50.866;12.750;2023-04-24T06:43:53;3.80;;;3.40;;
4375;SDS011;2202;50.866;12.750;2023-04-24T06:46:21;2.83;;;2.60;;
4375;SDS011;2202;50.866;12.750;2023-04-24T06:48:52;3.50;;;2.73;;
4375;SDS011;2202;50.866;12.750;2023-04-24T06:51:20;3.53;;;3.23;;
4375;SDS011;2202;50.866;12.750;2023-04-24T06:53:48;3.60;;;3.30;;
4375;SDS011;2202;50.866;12.750;2023-04-24T06:56:15;2.87;;;2.57;;
4375;SDS011;2202;50.866;12.750;2023-04-24T06:58:42;4.80;;;3.57;;
4375;SDS011;2202;50.866;12.750;2023-04-24T07:01:09;3.03;;;2.80;;
4375;SDS011;2202;50.866;12.750;2023-04-24T07:03:36;2.93;;;2.70;;
4375;SDS011;2202;50.866;12.750;2023-04-24T07:06:04;7.00;;;6.27;;
4375;SDS011;2202;50.866;12.750;2023-04-24T07:08:32;3.63;;;3.27;;
4375;SDS011;2202;50.866;12.750;2023-04-24T07:10:59;4.60;;;2.77;;
4375;SDS011;2202;50.866;12.750;2023-04-24T07:13:26;2.80;;;2.60;;
4375;SDS011;2202;50.866;12.750;2023-04-24T07:15:53;3.07;;;2.73;;
4375;SDS011;2202;50.866;12.750;2023-04-24T07:18:21;4.43;;;3.23;;
4375;SDS011;2202;50.866;12.750;2023-04-24T07:20:48;3.73;;;2.70;;
4375;SDS011;2202;50.866;12.750;2023-04-24T07:23:17;2.80;;;2.60;;
4375;SDS011;2202;50.866;12.750;2023-04-24T07:25:44;3.23;;;2.93;;
4375;SDS011;2202;50.866;12.750;2023-04-24T07:28:11;2.87;;;2.40;;
4375;SDS011;2202;50.866;12.750;2023-04-24T07:30:38;3.40;;;2.90;;
4375;SDS011;2202;50.866;12.750;2023-04-24T07:33:05;2.80;;;2.23;;
4375;SDS011;2202;50.866;12.750;2023-04-24T07:35:32;3.80;;;2.43;;
4375;SDS011;2202;50.866;12.750;2023-04-24T07:38:00;2.60;;;2.33;;
4375;SDS011;2202;50.866;12.750;2023-04-24T07:40:28;4.03;;;3.20;;
4375;SDS011;2202;50.866;12.750;2023-04-24T07:42:55;3.37;;;2.07;;
4375;SDS011;2202;50.866;12.750;2023-04-24T07:45:22;2.87;;;2.33;;
4375;SDS011;2202;50.866;12.750;2023-04-24T07:47:51;3.70;;;2.23;;
4375;SDS011;2202;50.866;12.750;2023-04-24T07:50:18;2.10;;;1.90;;
4375;SDS011;2202;50.866;12.750;2023-04-24T07:52:45;2.60;;;2.40;;
4375;SDS011;2202;50.866;12.750;2023-04-24T07:55:12;3.40;;;2.30;;
4375;SDS011;2202;50.866;12.750;2023-04-24T07:57:40;4.60;;;2.30;;
4375;SDS011;2202;50.866;12.750;2023-04-24T08:00:08;2.30;;;2.10;;
4375;SDS011;2202;50.866;12.750;2023-04-24T08:02:35;2.60;;;2.40;;
4375;SDS011;2202;50.866;12.750;2023-04-24T08:05:02;2.70;;;2.50;;
4375;SDS011;2202;50.866;12.750;2023-04-24T08:07:29;11.23;;;2.60;;
4375;SDS011;2202;50.866;12.750;2023-04-24T08:09:56;2.50;;;2.30;;
4375;SDS011;2202;50.866;12.750;2023-04-24T08:12:24;2.73;;;2.53;;
4375;SDS011;2202;50.866;12.750;2023-04-24T08:14:52;2.60;;;2.40;;
4375;SDS011;2202;50.866;12.750;2023-04-24T08:17:19;2.40;;;2.20;;
4375;SDS011;2202;50.866;12.750;2023-04-24T08:19:46;4.30;;;1.90;;
4375;SDS011;2202;50.866;12.750;2023-04-24T08:22:14;2.70;;;2.40;;
4375;SDS011;2202;50.866;12.750;2023-04-24T08:24:40;4.43;;;2.30;;
4375;SDS011;2202;50.866;12.750;2023-04-24T08:27:08;2.43;;;2.00;;
4375;SDS011;2202;50.866;12.750;2023-04-24T08:29:35;2.67;;;2.10;;
4375;SDS011;2202;50.866;12.750;2023-04-24T08:32:04;2.70;;;2.30;;
4375;SDS011;2202;50.866;12.750;2023-04-24T08:34:31;8.03;;;1.97;;
4375;SDS011;2202;50.866;12.750;2023-04-24T08:36:58;2.80;;;1.90;;
4375;SDS011;2202;50.866;12.750;2023-04-24T08:39:25;2.47;;;1.63;;
4375;SDS011;2202;50.866;12.750;2023-04-24T08:41:52;3.03;;;2.20;;
4375;SDS011;2202;50.866;12.750;2023-04-24T08:44:19;3.70;;;2.10;;
4375;SDS011;2202;50.866;12.750;2023-04-24T08:46:47;2.33;;;2.13;;
4375;SDS011;2202;50.866;12.750;2023-04-24T08:49:17;2.53;;;2.00;;
4375;SDS011;2202;50.866;12.750;2023-04-24T08:51:45;5.00;;;2.87;;
4375;SDS011;2202;50.866;12.750;2023-04-24T08:54:13;2.20;;;2.00;;
4375;SDS011;2202;50.866;12.750;2023-04-24T08:56:40;3.00;;;1.90;;
4375;SDS011;2202;50.866;12.750;2023-04-24T08:59:09;2.97;;;2.40;;
4375;SDS011;2202;50.866;12.750;2023-04-24T09:01:37;2.57;;;2.00;;
4375;SDS011;2202;50.866;12.750;2023-04-24T09:04:05;3.03;;;1.90;;
4375;SDS011;2202;50.866;12.750;2023-04-24T09:06:36;2.23;;;1.60;;
4375;SDS011;2202;50.866;12.750;2023-04-24T09:09:03;1.70;;;1.60;;
4375;SDS011;2202;50.866;12.750;2023-04-24T09:11:30;1.80;;;1.70;;
4375;SDS011;2202;50.866;12.750;2023-04-24T09:13:58;1.73;;;1.60;;
4375;SDS011;2202;50.866;12.750;2023-04-24T09:16:25;2.43;;;1.63;;
4375;SDS011;2202;50.866;12.750;2023-04-24T09:18:52;1.80;;;1.43;;
4375;SDS011;2202;50.866;12.750;2023-04-24T09:21:20;1.80;;;1.53;;
4375;SDS011;2202;50.866;12.750;2023-04-24T09:23:49;1.60;;;1.50;;
4375;SDS011;2202;50.866;12.750;2023-04-24T09:26:24;2.73;;;1.73;;
4375;SDS011;2202;50.866;12.750;2023-04-24T09:28:53;2.17;;;1.63;;
4375;SDS011;2202;50.866;12.750;2023-04-24T09:31:20;2.07;;;1.57;;
4375;SDS011;2202;50.866;12.750;2023-04-24T09:33:53;1.87;;;1.70;;
4375;SDS011;2202;50.866;12.750;2023-04-24T09:36:26;1.53;;;1.00;;
4375;SDS011;2202;50.866;12.750;2023-04-24T09:38:57;2.53;;;1.07;;
4375;SDS011;2202;50.866;12.750;2023-04-24T09:41:24;1.40;;;1.10;;
4375;SDS011;2202;50.866;12.750;2023-04-24T09:43:53;2.93;;;1.13;;
4375;SDS011;2202;50.866;12.750;2023-04-24T09:46:20;1.33;;;1.10;;
4375;SDS011;2202;50.866;12.750;2023-04-24T09:48:55;1.60;;;1.43;;
4375;SDS011;2202;50.866;12.750;2023-04-24T09:51:32;1.50;;;1.17;;
4375;SDS011;2202;50.866;12.750;2023-04-24T09:54:03;1.87;;;1.23;;
4375;SDS011;2202;50.866;12.750;2023-04-24T09:56:32;2.70;;;1.10;;
4375;SDS011;2202;50.866;12.750;2023-04-24T09:59:06;1.47;;;1.10;;
4375;SDS011;2202;50.866;12.750;2023-04-24T10:01:33;3.03;;;1.13;;
4375;SDS011;2202;50.866;12.750;2023-04-24T10:04:01;3.80;;;1.17;;
4375;SDS011;2202;50.866;12.750;2023-04-24T10:06:32;9.30;;;2.40;;
4375;SDS011;2202;50.866;12.750;2023-04-24T10:09:00;4.70;;;1.30;;
4375;SDS011;2202;50.866;12.750;2023-04-24T10:11:30;1.50;;;1.37;;
4375;SDS011;2202;50.866;12.750;2023-04-24T10:13:57;2.10;;;1.90;;
4375;SDS011;2202;50.866;12.750;2023-04-24T10:16:24;1.40;;;1.30;;
4375;SDS011;2202;50.866;12.750;2023-04-24T10:18:53;1.67;;;1.37;;
4375;SDS011;2202;50.866;12.750;2023-04-24T10:21:21;1.80;;;1.30;;
4375;SDS011;2202;50.866;12.750;2023-04-24T10:23:48;2.00;;;1.70;;
4375;SDS011;2202;50.866;12.750;2023-04-24T10:26:16;2.33;;;1.50;;
4375;SDS011;2202;50.866;12.750;2023-04-24T10:28:46;4.60;;;1.67;;
4375;SDS011;2202;50.866;12.750;2023-04-24T10:31:14;2.10;;;1.43;;
4375;SDS011;2202;50.866;12.750;2023-04-24T10:33:41;3.10;;;1.27;;
4375;SDS011;2202;50.866;12.750;2023-04-24T10:36:09;2.40;;;1.80;;
4375;SDS011;2202;50.866;12.750;2023-04-24T10:38:38;2.57;;;1.67;;
4375;SDS011;2202;50.866;12.750;2023-04-24T10:41:07;4.20;;;1.80;;
4375;SDS011;2202;50.866;12.750;2023-04-24T10:43:39;3.07;;;1.70;;
4375;SDS011;2202;50.866;12.750;2023-04-24T10:46:08;2.20;;;1.43;;
4375;SDS011;2202;50.866;12.750;2023-04-24T10:48:36;3.70;;;1.57;;
4375;SDS011;2202;50.866;12.750;2023-04-24T10:51:11;2.13;;;1.43;;
4375;SDS011;2202;50.866;12.750;2023-04-24T10:53:38;2.30;;;1.57;;
4375;SDS011;2202;50.866;12.750;2023-04-24T10:56:06;7.67;;;1.70;;
4375;SDS011;2202;50.866;12.750;2023-04-24T10:58:38;2.37;;;1.70;;
4375;SDS011;2202;50.866;12.750;2023-04-24T11:01:11;3.17;;;2.13;;
4375;SDS011;2202;50.866;12.750;2023-04-24T11:03:50;2.50;;;1.50;;
4375;SDS011;2202;50.866;12.750;2023-04-24T11:06:21;2.87;;;1.40;;
4375;SDS011;2202;50.866;12.750;2023-04-24T11:08:58;3.23;;;1.40;;
4375;SDS011;2202;50.866;12.750;2023-04-24T11:11:30;3.07;;;1.60;;
4375;SDS011;2202;50.866;12.750;2023-04-24T11:14:01;2.53;;;1.70;;
4375;SDS011;2202;50.866;12.750;2023-04-24T11:16:33;3.60;;;1.67;;
4375;SDS011;2202;50.866;12.750;2023-04-24T11:19:02;2.97;;;1.50;;
4375;SDS011;2202;50.866;12.750;2023-04-24T11:21:31;3.40;;;1.60;;
4375;SDS011;2202;50.866;12.750;2023-04-24T11:26:53;4.50;;;1.70;;
4375;SDS011;2202;50.866;12.750;2023-04-24T11:29:22;3.60;;;1.97;;
4375;SDS011;2202;50.866;12.750;2023-04-24T11:31:50;4.37;;;1.60;;
4375;SDS011;2202;50.866;12.750;2023-04-24T11:34:17;3.63;;;1.73;;
4375;SDS011;2202;50.866;12.750;2023-04-24T11:36:44;2.93;;;1.47;;
4375;SDS011;2202;50.866;12.750;2023-04-24T11:39:12;3.93;;;2.17;;
4375;SDS011;2202;50.866;12.750;2023-04-24T11:41:40;3.10;;;2.20;;
4375;SDS011;2202;50.866;12.750;2023-04-24T11:44:08;3.30;;;1.87;;
4375;SDS011;2202;50.866;12.750;2023-04-24T11:46:36;3.37;;;1.83;;
4375;SDS011;2202;50.866;12.750;2023-04-24T11:49:06;7.50;;;2.03;;
4375;SDS011;2202;50.866;12.750;2023-04-24T11:51:33;3.43;;;1.50;;
4375;SDS011;2202;50.866;12.750;2023-04-24T11:54:00;4.80;;;2.00;;
4375;SDS011;2202;50.866;12.750;2023-04-24T11:56:28;3.90;;;2.20;;
4375;SDS011;2202;50.866;12.750;2023-04-24T11:58:55;5.00;;;3.03;;
4375;SDS011;2202;50.866;12.750;2023-04-24T12:01:22;3.53;;;1.83;;
4375;SDS011;2202;50.866;12.750;2023-04-24T12:03:49;5.30;;;1.97;;
4375;SDS011;2202;50.866;12.750;2023-04-24T12:06:18;3.93;;;1.83;;
4375;SDS011;2202;50.866;12.750;2023-04-24T12:08:46;3.90;;;1.87;;
4375;SDS011;2202;50.866;12.750;2023-04-24T12:11:14;6.73;;;2.20;;
4375;SDS011;2202;50.866;12.750;2023-04-24T12:13:43;5.47;;;2.20;;
4375;SDS011;2202;50.866;12.750;2023-04-24T12:16:10;5.03;;;2.53;;
4375;SDS011;2202;50.866;12.750;2023-04-24T12:18:41;5.50;;;2.60;;
4375;SDS011;2202;50.866;12.750;2023-04-24T12:21:15;6.87;;;2.10;;
4375;SDS011;2202;50.866;12.750;2023-04-24T12:23:45;7.10;;;1.93;;
4375;SDS011;2202;50.866;12.750;2023-04-24T12:26:15;5.97;;;2.30;;
4375;SDS011;2202;50.866;12.750;2023-04-24T12:28:45;8.07;;;2.00;;
4375;SDS011;2202;50.866;12.750;2023-04-24T12:31:13;6.03;;;2.30;;
4375;SDS011;2202;50.866;12.750;2023-04-24T12:33:40;5.47;;;2.10;;
4375;SDS011;2202;50.866;12.750;2023-04-24T12:36:09;5.40;;;2.57;;
4375;SDS011;2202;50.866;12.750;2023-04-24T12:38:38;6.50;;;2.90;;
4375;SDS011;2202;50.866;12.750;2023-04-24T12:41:10;5.90;;;2.50;;
4375;SDS011;2202;50.866;12.750;2023-04-24T12:43:38;4.87;;;2.20;;
4375;SDS011;2202;50.866;12.750;2023-04-24T12:46:16;4.60;;;1.90;;
4375;SDS011;2202;50.866;12.750;2023-04-24T12:48:43;6.77;;;2.07;;
4375;SDS011;2202;50.866;12.750;2023-04-24T12:51:10;5.60;;;2.00;;
4375;SDS011;2202;50.866;12.750;2023-04-24T12:53:36;7.17;;;2.60;;
4375;SDS011;2202;50.866;12.750;2023-04-24T12:56:05;4.77;;;1.60;;
4375;SDS011;2202;50.866;12.750;2023-04-24T12:58:32;6.57;;;2.40;;
4375;SDS011;2202;50.866;12.750;2023-04-24T13:00:58;5.13;;;2.10;;
4375;SDS011;2202;50.866;12.750;2023-04-24T13:03:25;5.07;;;1.97;;
4375;SDS011;2202;50.866;12.750;2023-04-24T13:05:52;5.57;;;2.00;;
4375;SDS011;2202;50.866;12.750;2023-04-24T13:08:19;9.60;;;2.50;;
4375;SDS011;2202;50.866;12.750;2023-04-24T13:10:47;10.00;;;3.10;;
4375;SDS011;2202;50.866;12.750;2023-04-24T13:13:16;5.27;;;2.30;;
4375;SDS011;2202;50.866;12.750;2023-04-24T13:15:42;7.43;;;2.40;;
4375;SDS011;2202;50.866;12.750;2023-04-24T13:18:09;5.63;;;2.43;;
4375;SDS011;2202;50.866;12.750;2023-04-24T13:20:36;6.23;;;2.27;;
4375;SDS011;2202;50.866;12.750;2023-04-24T13:23:03;5.87;;;2.13;;
4375;SDS011;2202;50.866;12.750;2023-04-24T13:25:34;5.27;;;2.10;;
4375;SDS011;2202;50.866;12.750;2023-04-24T13:28:03;6.20;;;2.20;;
4375;SDS011;2202;50.866;12.750;2023-04-24T13:30:30;7.60;;;2.83;;
4375;SDS011;2202;50.866;12.750;2023-04-24T13:32:57;6.00;;;2.43;;
4375;SDS011;2202;50.866;12.750;2023-04-24T13:35:24;9.43;;;2.60;;
4375;SDS011;2202;50.866;12.750;2023-04-24T13:37:51;5.57;;;2.30;;
4375;SDS011;2202;50.866;12.750;2023-04-24T13:40:18;5.30;;;2.23;;
4375;SDS011;2202;50.866;12.750;2023-04-24T13:42:45;5.20;;;1.90;;
4375;SDS011;2202;50.866;12.750;2023-04-24T13:45:13;10.50;;;2.37;;
4375;SDS011;2202;50.866;12.750;2023-04-24T13:47:40;5.10;;;2.30;;
4375;SDS011;2202;50.866;12.750;2023-04-24T13:50:07;4.80;;;2.00;;
4375;SDS011;2202;50.866;12.750;2023-04-24T13:52:35;5.93;;;2.10;;
4375;SDS011;2202;50.866;12.750;2023-04-24T13:55:01;5.87;;;2.03;;
4375;SDS011;2202;50.866;12.750;2023-04-24T13:57:28;6.07;;;2.20;;
4375;SDS011;2202;50.866;12.750;2023-04-24T13:59:56;6.67;;;2.40;;
4375;SDS011;2202;50.866;12.750;2023-04-24T14:02:27;5.60;;;2.50;;
4375;SDS011;2202;50.866;12.750;2023-04-24T14:04:54;6.90;;;2.30;;
4375;SDS011;2202;50.866;12.750;2023-04-24T14:07:21;6.50;;;2.33;;
4375;SDS011;2202;50.866;12.750;2023-04-24T14:09:48;5.43;;;2.80;;
4375;SDS011;2202;50.866;12.750;2023-04-24T14:12:14;6.63;;;2.00;;
4375;SDS011;2202;50.866;12.750;2023-04-24T14:14:44;7.27;;;2.30;;
4375;SDS011;2202;50.866;12.750;2023-04-24T14:17:12;6.17;;;2.40;;
4375;SDS011;2202;50.866;12.750;2023-04-24T14:19:40;5.07;;;1.90;;
4375;SDS011;2202;50.866;12.750;2023-04-24T14:22:07;5.83;;;2.40;;
4375;SDS011;2202;50.866;12.750;2023-04-24T14:24:33;9.13;;;2.77;;
4375;SDS011;2202;50.866;12.750;2023-04-24T14:27:01;5.50;;;2.20;;
4375;SDS011;2202;50.866;12.750;2023-04-24T14:29:28;6.57;;;2.23;;
4375;SDS011;2202;50.866;12.750;2023-04-24T14:31:54;4.97;;;2.20;;
4375;SDS011;2202;50.866;12.750;2023-04-24T14:34:21;5.40;;;2.00;;
4375;SDS011;2202;50.866;12.750;2023-04-24T14:36:49;5.00;;;2.07;;
4375;SDS011;2202;50.866;12.750;2023-04-24T14:39:16;5.10;;;2.10;;
4375;SDS011;2202;50.866;12.750;2023-04-24T14:41:43;4.83;;;1.93;;
4375;SDS011;2202;50.866;12.750;2023-04-24T14:44:10;5.30;;;2.30;;
4375;SDS011;2202;50.866;12.750;2023-04-24T14:46:37;7.23;;;2.40;;
4375;SDS011;2202;50.866;12.750;2023-04-24T14:49:03;5.90;;;2.40;;
4375;SDS011;2202;50.866;12.750;2023-04-24T14:51:30;5.50;;;2.40;;
4375;SDS011;2202;50.866;12.750;2023-04-24T14:53:58;8.33;;;3.83;;
4375;SDS011;2202;50.866;12.750;2023-04-24T14:56:25;6.90;;;2.40;;
4375;SDS011;2202;50.866;12.750;2023-04-24T14:58:52;5.63;;;2.83;;
4375;SDS011;2202;50.866;12.750;2023-04-24T15:01:19;5.30;;;2.43;;
4375;SDS011;2202;50.866;12.750;2023-04-24T15:03:46;6.93;;;2.40;;
4375;SDS011;2202;50.866;12.750;2023-04-24T15:06:13;7.60;;;3.30;;